sensor_id;sensor_type;location;lat;lon;timestamp;P1;durP1;ratioP1;P2;durP2;ratioP2
579;SDS011;276;48.392;9.950;2022-12-20T00:01:26;34.50;;;26.67;;
579;SDS011;276;48.392;9.950;2022-12-20T00:03:54;36.10;;;29.93;;
579;SDS011;276;48.392;9.950;2022-12-20T00:06:21;38.00;;;29.70;;
579;SDS011;276;48.392;9.950;2022-12-20T00:08:53;45.77;;;31.63;;
579;SDS011;276;48.392;9.950;2022-12-20T00:11:19;42.73;;;29.27;;
579;SDS011;276;48.392;9.950;2022-12-20T00:13:45;38.00;;;28.93;;
579;SDS011;276;48.392;9.950;2022-12-20T00:16:19;39.20;;;29.67;;
579;SDS011;276;48.392;9.950;2022-12-20T00:18:46;43.93;;;30.73;;
579;SDS011;276;48.392;9.950;2022-12-20T00:21:14;42.30;;;30.30;;
579;SDS011;276;48.392;9.950;2022-12-20T00:23:40;44.77;;;33.97;;
579;SDS011;276;48.392;9.950;2022-12-20T00:26:12;51.73;;;34.63;;
579;SDS011;276;48.392;9.950;2022-12-20T00:28:39;49.97;;;33.23;;
579;SDS011;276;48.392;9.950;2022-12-20T00:31:07;55.13;;;34.67;;
579;SDS011;276;48.392;9.950;2022-12-20T00:33:36;56.23;;;34.73;;
579;SDS011;276;48.392;9.950;2022-12-20T00:36:03;47.33;;;33.23;;
579;SDS011;276;48.392;9.950;2022-12-20T00:38:30;51.00;;;33.50;;
579;SDS011;276;48.392;9.950;2022-12-20T00:43:35;47.70;;;31.83;;
579;SDS011;276;48.392;9.950;2022-12-20T00:46:01;46.70;;;31.60;;
579;SDS011;276;48.392;9.950;2022-12-20T00:48:29;44.07;;;29.80;;
579;SDS011;276;48.392;9.950;2022-12-20T00:50:57;60.30;;;34.50;;
579;SDS011;276;48.392;9.950;2022-12-20T00:53:27;51.47;;;33.20;;
579;SDS011;276;48.392;9.950;2022-12-20T00:55:55;48.63;;;32.50;;
579;SDS011;276;48.392;9.950;2022-12-20T00:58:24;45.93;;;31.93;;
579;SDS011;276;48.392;9.950;2022-12-20T01:00:52;43.90;;;30.10;;
579;SDS011;276;48.392;9.950;2022-12-20T01:03:18;47.03;;;31.57;;
579;SDS011;276;48.392;9.950;2022-12-20T01:05:53;42.83;;;32.47;;
579;SDS011;276;48.392;9.950;2022-12-20T01:08:23;45.80;;;32.10;;
579;SDS011;276;48.392;9.950;2022-12-20T01:13:33;36.30;;;29.07;;
579;SDS011;276;48.392;9.950;2022-12-20T01:16:08;37.43;;;25.70;;
579;SDS011;276;48.392;9.950;2022-12-20T01:18:39;34.20;;;26.83;;
579;SDS011;276;48.392;9.950;2022-12-20T01:21:08;37.23;;;26.10;;
579;SDS011;276;48.392;9.950;2022-12-20T01:23:35;38.60;;;28.23;;
579;SDS011;276;48.392;9.950;2022-12-20T01:26:03;37.73;;;27.77;;
579;SDS011;276;48.392;9.950;2022-12-20T01:28:35;36.17;;;27.07;;
579;SDS011;276;48.392;9.950;2022-12-20T01:31:07;39.47;;;28.97;;
579;SDS011;276;48.392;9.950;2022-12-20T01:33:34;34.90;;;25.40;;
579;SDS011;276;48.392;9.950;2022-12-20T01:36:04;29.87;;;23.67;;
579;SDS011;276;48.392;9.950;2022-12-20T01:38:31;36.53;;;27.07;;
579;SDS011;276;48.392;9.950;2022-12-20T01:40:59;30.13;;;25.37;;
579;SDS011;276;48.392;9.950;2022-12-20T01:43:43;35.27;;;24.73;;
579;SDS011;276;48.392;9.950;2022-12-20T01:46:14;31.60;;;26.50;;
579;SDS011;276;48.392;9.950;2022-12-20T01:48:43;36.20;;;23.47;;
579;SDS011;276;48.392;9.950;2022-12-20T01:51:13;33.77;;;25.40;;
579;SDS011;276;48.392;9.950;2022-12-20T01:53:39;31.03;;;26.10;;
579;SDS011;276;48.392;9.950;2022-12-20T01:56:07;37.23;;;25.73;;
579;SDS011;276;48.392;9.950;2022-12-20T01:58:34;35.77;;;25.27;;
579;SDS011;276;48.392;9.950;2022-12-20T02:01:05;33.30;;;23.97;;
579;SDS011;276;48.392;9.950;2022-12-20T02:03:31;40.70;;;27.40;;
579;SDS011;276;48.392;9.950;2022-12-20T02:06:08;36.20;;;25.40;;
579;SDS011;276;48.392;9.950;2022-12-20T02:08:43;27.83;;;22.33;;
579;SDS011;276;48.392;9.950;2022-12-20T02:14:10;38.30;;;26.77;;
579;SDS011;276;48.392;9.950;2022-12-20T02:25:24;33.17;;;24.40;;
579;SDS011;276;48.392;9.950;2022-12-20T02:31:00;29.20;;;22.63;;
579;SDS011;276;48.392;9.950;2022-12-20T02:33:31;32.60;;;24.07;;
579;SDS011;276;48.392;9.950;2022-12-20T02:35:57;31.57;;;24.00;;
579;SDS011;276;48.392;9.950;2022-12-20T02:40:51;32.67;;;24.67;;
579;SDS011;276;48.392;9.950;2022-12-20T02:43:25;28.30;;;22.70;;
579;SDS011;276;48.392;9.950;2022-12-20T02:46:12;32.50;;;23.33;;
579;SDS011;276;48.392;9.950;2022-12-20T02:48:40;30.07;;;22.37;;
579;SDS011;276;48.392;9.950;2022-12-20T02:51:07;27.30;;;22.03;;
579;SDS011;276;48.392;9.950;2022-12-20T02:53:37;28.43;;;21.47;;
579;SDS011;276;48.392;9.950;2022-12-20T02:56:06;30.27;;;24.33;;
579;SDS011;276;48.392;9.950;2022-12-20T02:58:41;30.27;;;24.20;;
579;SDS011;276;48.392;9.950;2022-12-20T03:01:13;31.03;;;23.80;;
579;SDS011;276;48.392;9.950;2022-12-20T03:03:50;32.50;;;25.10;;
579;SDS011;276;48.392;9.950;2022-12-20T03:06:18;31.93;;;23.87;;
579;SDS011;276;48.392;9.950;2022-12-20T03:08:46;32.63;;;24.20;;
579;SDS011;276;48.392;9.950;2022-12-20T03:11:12;30.53;;;25.60;;
579;SDS011;276;48.392;9.950;2022-12-20T03:13:38;27.17;;;24.17;;
579;SDS011;276;48.392;9.950;2022-12-20T03:16:04;29.13;;;23.63;;
579;SDS011;276;48.392;9.950;2022-12-20T03:18:33;27.87;;;24.80;;
579;SDS011;276;48.392;9.950;2022-12-20T03:21:01;28.30;;;23.30;;
579;SDS011;276;48.392;9.950;2022-12-20T03:23:29;26.83;;;21.60;;
579;SDS011;276;48.392;9.950;2022-12-20T03:25:57;28.47;;;24.90;;
579;SDS011;276;48.392;9.950;2022-12-20T03:28:22;32.10;;;24.30;;
579;SDS011;276;48.392;9.950;2022-12-20T03:30:48;28.47;;;23.37;;
579;SDS011;276;48.392;9.950;2022-12-20T03:33:16;25.83;;;22.47;;
579;SDS011;276;48.392;9.950;2022-12-20T03:35:44;27.53;;;23.90;;
579;SDS011;276;48.392;9.950;2022-12-20T03:38:11;26.30;;;21.53;;
579;SDS011;276;48.392;9.950;2022-12-20T03:40:39;27.90;;;23.37;;
579;SDS011;276;48.392;9.950;2022-12-20T03:43:05;27.20;;;22.47;;
579;SDS011;276;48.392;9.950;2022-12-20T03:45:33;27.73;;;22.97;;
579;SDS011;276;48.392;9.950;2022-12-20T03:48:01;26.23;;;21.47;;
579;SDS011;276;48.392;9.950;2022-12-20T03:50:26;27.23;;;21.83;;
579;SDS011;276;48.392;9.950;2022-12-20T03:52:54;29.80;;;23.07;;
579;SDS011;276;48.392;9.950;2022-12-20T03:55:22;28.77;;;24.40;;
579;SDS011;276;48.392;9.950;2022-12-20T03:57:48;27.90;;;22.50;;
579;SDS011;276;48.392;9.950;2022-12-20T04:00:14;30.57;;;22.90;;
579;SDS011;276;48.392;9.950;2022-12-20T04:02:42;31.30;;;23.93;;
579;SDS011;276;48.392;9.950;2022-12-20T04:05:12;29.00;;;22.97;;
579;SDS011;276;48.392;9.950;2022-12-20T04:07:38;25.70;;;22.97;;
579;SDS011;276;48.392;9.950;2022-12-20T04:10:09;29.90;;;23.97;;
579;SDS011;276;48.392;9.950;2022-12-20T04:12:35;28.33;;;23.13;;
579;SDS011;276;48.392;9.950;2022-12-20T04:15:03;27.00;;;22.80;;
579;SDS011;276;48.392;9.950;2022-12-20T04:17:29;30.20;;;24.07;;
579;SDS011;276;48.392;9.950;2022-12-20T04:19:55;25.87;;;21.37;;
579;SDS011;276;48.392;9.950;2022-12-20T04:22:22;27.57;;;21.37;;
579;SDS011;276;48.392;9.950;2022-12-20T04:24:48;26.30;;;22.10;;
579;SDS011;276;48.392;9.950;2022-12-20T04:27:16;31.13;;;23.37;;
579;SDS011;276;48.392;9.950;2022-12-20T04:29:46;25.50;;;22.70;;
579;SDS011;276;48.392;9.950;2022-12-20T04:32:12;28.03;;;21.43;;
579;SDS011;276;48.392;9.950;2022-12-20T04:34:37;26.73;;;23.77;;
579;SDS011;276;48.392;9.950;2022-12-20T04:37:05;29.47;;;23.33;;
579;SDS011;276;48.392;9.950;2022-12-20T04:39:33;26.60;;;23.70;;
579;SDS011;276;48.392;9.950;2022-12-20T04:41:59;29.57;;;22.13;;
579;SDS011;276;48.392;9.950;2022-12-20T04:44:24;26.43;;;21.77;;
579;SDS011;276;48.392;9.950;2022-12-20T04:46:52;25.73;;;21.07;;
579;SDS011;276;48.392;9.950;2022-12-20T04:49:20;28.87;;;24.73;;
579;SDS011;276;48.392;9.950;2022-12-20T04:51:48;33.87;;;24.10;;
579;SDS011;276;48.392;9.950;2022-12-20T04:54:13;25.23;;;22.43;;
579;SDS011;276;48.392;9.950;2022-12-20T04:56:41;25.10;;;22.00;;
579;SDS011;276;48.392;9.950;2022-12-20T04:59:07;28.10;;;23.87;;
579;SDS011;276;48.392;9.950;2022-12-20T05:01:33;28.00;;;22.30;;
579;SDS011;276;48.392;9.950;2022-12-20T05:04:03;28.40;;;22.37;;
579;SDS011;276;48.392;9.950;2022-12-20T05:06:29;33.10;;;23.30;;
579;SDS011;276;48.392;9.950;2022-12-20T05:08:54;26.13;;;22.60;;
579;SDS011;276;48.392;9.950;2022-12-20T05:11:20;28.20;;;22.10;;
579;SDS011;276;48.392;9.950;2022-12-20T05:13:46;25.77;;;21.80;;
579;SDS011;276;48.392;9.950;2022-12-20T05:16:14;26.00;;;22.00;;
579;SDS011;276;48.392;9.950;2022-12-20T05:18:40;25.93;;;23.20;;
579;SDS011;276;48.392;9.950;2022-12-20T05:21:06;24.83;;;22.13;;
579;SDS011;276;48.392;9.950;2022-12-20T05:23:50;27.33;;;22.37;;
579;SDS011;276;48.392;9.950;2022-12-20T05:26:35;29.70;;;22.80;;
579;SDS011;276;48.392;9.950;2022-12-20T05:29:02;26.93;;;22.30;;
579;SDS011;276;48.392;9.950;2022-12-20T05:31:30;32.10;;;23.40;;
579;SDS011;276;48.392;9.950;2022-12-20T05:33:58;27.27;;;21.80;;
579;SDS011;276;48.392;9.950;2022-12-20T05:36:26;27.13;;;23.90;;
579;SDS011;276;48.392;9.950;2022-12-20T05:38:52;30.10;;;23.30;;
579;SDS011;276;48.392;9.950;2022-12-20T05:41:18;31.77;;;25.03;;
579;SDS011;276;48.392;9.950;2022-12-20T05:43:46;27.47;;;22.90;;
579;SDS011;276;48.392;9.950;2022-12-20T05:46:14;31.17;;;23.30;;
579;SDS011;276;48.392;9.950;2022-12-20T05:48:40;26.90;;;23.00;;
579;SDS011;276;48.392;9.950;2022-12-20T05:51:07;28.47;;;23.10;;
579;SDS011;276;48.392;9.950;2022-12-20T05:53:35;26.63;;;21.90;;
579;SDS011;276;48.392;9.950;2022-12-20T05:56:01;30.37;;;23.57;;
579;SDS011;276;48.392;9.950;2022-12-20T05:58:26;25.23;;;21.03;;
579;SDS011;276;48.392;9.950;2022-12-20T06:00:52;29.20;;;23.57;;
579;SDS011;276;48.392;9.950;2022-12-20T06:03:18;29.80;;;23.57;;
579;SDS011;276;48.392;9.950;2022-12-20T06:05:49;25.93;;;21.97;;
579;SDS011;276;48.392;9.950;2022-12-20T06:08:16;23.40;;;20.63;;
579;SDS011;276;48.392;9.950;2022-12-20T06:10:46;24.53;;;21.87;;
579;SDS011;276;48.392;9.950;2022-12-20T06:13:15;31.53;;;25.07;;
579;SDS011;276;48.392;9.950;2022-12-20T06:15:41;28.43;;;22.40;;
579;SDS011;276;48.392;9.950;2022-12-20T06:18:09;30.50;;;23.93;;
579;SDS011;276;48.392;9.950;2022-12-20T06:20:37;28.47;;;23.70;;
579;SDS011;276;48.392;9.950;2022-12-20T06:23:06;27.53;;;24.47;;
579;SDS011;276;48.392;9.950;2022-12-20T06:25:33;30.00;;;25.40;;
579;SDS011;276;48.392;9.950;2022-12-20T06:28:02;25.93;;;23.10;;
579;SDS011;276;48.392;9.950;2022-12-20T06:30:30;30.40;;;24.13;;
579;SDS011;276;48.392;9.950;2022-12-20T06:32:55;27.43;;;24.43;;
579;SDS011;276;48.392;9.950;2022-12-20T06:35:21;25.47;;;22.73;;
579;SDS011;276;48.392;9.950;2022-12-20T06:37:47;28.57;;;23.87;;
579;SDS011;276;48.392;9.950;2022-12-20T06:40:12;32.90;;;23.67;;
579;SDS011;276;48.392;9.950;2022-12-20T06:42:41;31.83;;;23.10;;
579;SDS011;276;48.392;9.950;2022-12-20T06:45:11;33.40;;;27.10;;
579;SDS011;276;48.392;9.950;2022-12-20T06:47:37;26.40;;;22.17;;
579;SDS011;276;48.392;9.950;2022-12-20T06:50:04;29.13;;;22.80;;
579;SDS011;276;48.392;9.950;2022-12-20T06:52:30;28.53;;;23.87;;
579;SDS011;276;48.392;9.950;2022-12-20T06:54:57;26.53;;;23.17;;
579;SDS011;276;48.392;9.950;2022-12-20T06:57:25;26.60;;;23.37;;
579;SDS011;276;48.392;9.950;2022-12-20T06:59:51;28.83;;;23.60;;
579;SDS011;276;48.392;9.950;2022-12-20T07:02:16;33.53;;;24.87;;
579;SDS011;276;48.392;9.950;2022-12-20T07:04:42;28.47;;;22.87;;
579;SDS011;276;48.392;9.950;2022-12-20T07:07:08;28.80;;;22.90;;
579;SDS011;276;48.392;9.950;2022-12-20T07:09:38;28.70;;;23.20;;
579;SDS011;276;48.392;9.950;2022-12-20T07:12:07;31.03;;;24.37;;
579;SDS011;276;48.392;9.950;2022-12-20T07:14:33;42.70;;;29.40;;
579;SDS011;276;48.392;9.950;2022-12-20T07:16:59;33.47;;;26.67;;
579;SDS011;276;48.392;9.950;2022-12-20T07:19:25;38.10;;;26.87;;
579;SDS011;276;48.392;9.950;2022-12-20T07:21:51;36.87;;;27.90;;
579;SDS011;276;48.392;9.950;2022-12-20T07:24:16;34.73;;;24.83;;
579;SDS011;276;48.392;9.950;2022-12-20T07:26:45;35.10;;;26.80;;
579;SDS011;276;48.392;9.950;2022-12-20T07:29:11;30.43;;;24.83;;
579;SDS011;276;48.392;9.950;2022-12-20T07:31:40;29.20;;;26.07;;
579;SDS011;276;48.392;9.950;2022-12-20T07:34:05;34.17;;;28.00;;
579;SDS011;276;48.392;9.950;2022-12-20T07:36:33;28.47;;;22.80;;
579;SDS011;276;48.392;9.950;2022-12-20T07:38:59;29.70;;;23.10;;
579;SDS011;276;48.392;9.950;2022-12-20T07:41:25;39.40;;;26.63;;
579;SDS011;276;48.392;9.950;2022-12-20T07:43:55;36.27;;;26.50;;
579;SDS011;276;48.392;9.950;2022-12-20T07:46:26;30.47;;;25.70;;
579;SDS011;276;48.392;9.950;2022-12-20T07:48:54;26.87;;;23.97;;
579;SDS011;276;48.392;9.950;2022-12-20T07:51:26;33.20;;;25.03;;
579;SDS011;276;48.392;9.950;2022-12-20T07:54:00;34.83;;;28.53;;
579;SDS011;276;48.392;9.950;2022-12-20T07:56:40;35.47;;;27.57;;
579;SDS011;276;48.392;9.950;2022-12-20T07:59:10;38.13;;;28.67;;
579;SDS011;276;48.392;9.950;2022-12-20T08:01:42;47.20;;;28.73;;
579;SDS011;276;48.392;9.950;2022-12-20T08:04:13;49.23;;;30.77;;
579;SDS011;276;48.392;9.950;2022-12-20T08:06:45;52.10;;;31.87;;
579;SDS011;276;48.392;9.950;2022-12-20T08:09:16;54.10;;;33.07;;
579;SDS011;276;48.392;9.950;2022-12-20T08:11:43;44.50;;;29.20;;
579;SDS011;276;48.392;9.950;2022-12-20T08:14:14;47.40;;;30.07;;
579;SDS011;276;48.392;9.950;2022-12-20T08:16:41;37.90;;;31.40;;
579;SDS011;276;48.392;9.950;2022-12-20T08:19:10;35.50;;;28.40;;
579;SDS011;276;48.392;9.950;2022-12-20T08:21:38;37.73;;;29.87;;
579;SDS011;276;48.392;9.950;2022-12-20T08:24:04;35.73;;;28.70;;
579;SDS011;276;48.392;9.950;2022-12-20T08:26:30;42.97;;;30.27;;
579;SDS011;276;48.392;9.950;2022-12-20T08:29:00;34.07;;;30.10;;
579;SDS011;276;48.392;9.950;2022-12-20T08:31:28;40.30;;;30.37;;
579;SDS011;276;48.392;9.950;2022-12-20T08:33:56;38.07;;;33.30;;
579;SDS011;276;48.392;9.950;2022-12-20T08:36:24;42.00;;;30.97;;
579;SDS011;276;48.392;9.950;2022-12-20T08:38:52;43.30;;;34.90;;
579;SDS011;276;48.392;9.950;2022-12-20T08:41:17;40.50;;;32.23;;
579;SDS011;276;48.392;9.950;2022-12-20T08:43:45;44.00;;;33.80;;
579;SDS011;276;48.392;9.950;2022-12-20T08:46:11;41.90;;;32.07;;
579;SDS011;276;48.392;9.950;2022-12-20T08:48:37;50.33;;;35.23;;
579;SDS011;276;48.392;9.950;2022-12-20T08:51:06;43.47;;;33.87;;
579;SDS011;276;48.392;9.950;2022-12-20T08:53:35;40.57;;;32.67;;
579;SDS011;276;48.392;9.950;2022-12-20T08:58:31;44.77;;;35.43;;
579;SDS011;276;48.392;9.950;2022-12-20T09:00:57;44.40;;;37.10;;
579;SDS011;276;48.392;9.950;2022-12-20T09:03:32;43.83;;;34.40;;
579;SDS011;276;48.392;9.950;2022-12-20T09:05:59;41.87;;;36.37;;
579;SDS011;276;48.392;9.950;2022-12-20T09:08:25;47.50;;;39.40;;
579;SDS011;276;48.392;9.950;2022-12-20T09:10:53;41.13;;;35.93;;
579;SDS011;276;48.392;9.950;2022-12-20T09:13:31;42.63;;;36.17;;
579;SDS011;276;48.392;9.950;2022-12-20T09:16:01;39.40;;;33.50;;
579;SDS011;276;48.392;9.950;2022-12-20T09:18:32;36.77;;;31.77;;
579;SDS011;276;48.392;9.950;2022-12-20T09:20:58;36.80;;;28.83;;
579;SDS011;276;48.392;9.950;2022-12-20T09:23:25;36.33;;;27.60;;
579;SDS011;276;48.392;9.950;2022-12-20T09:25:54;28.47;;;25.47;;
579;SDS011;276;48.392;9.950;2022-12-20T09:28:20;33.40;;;26.10;;
579;SDS011;276;48.392;9.950;2022-12-20T09:30:47;32.43;;;26.80;;
579;SDS011;276;48.392;9.950;2022-12-20T09:33:12;28.17;;;22.47;;
579;SDS011;276;48.392;9.950;2022-12-20T09:35:46;29.43;;;23.20;;
579;SDS011;276;48.392;9.950;2022-12-20T09:38:14;24.57;;;21.20;;
579;SDS011;276;48.392;9.950;2022-12-20T09:40:43;25.63;;;22.97;;
579;SDS011;276;48.392;9.950;2022-12-20T09:43:11;26.90;;;23.77;;
579;SDS011;276;48.392;9.950;2022-12-20T09:45:39;29.40;;;26.27;;
579;SDS011;276;48.392;9.950;2022-12-20T09:48:05;36.13;;;27.60;;
579;SDS011;276;48.392;9.950;2022-12-20T09:55:59;33.40;;;29.80;;
579;SDS011;276;48.392;9.950;2022-12-20T10:01:14;29.30;;;26.30;;
579;SDS011;276;48.392;9.950;2022-12-20T10:03:42;28.53;;;24.57;;
579;SDS011;276;48.392;9.950;2022-12-20T10:06:21;32.20;;;23.73;;
579;SDS011;276;48.392;9.950;2022-12-20T10:17:33;29.17;;;26.03;;
579;SDS011;276;48.392;9.950;2022-12-20T10:25:48;27.43;;;24.27;;
579;SDS011;276;48.392;9.950;2022-12-20T10:28:18;28.50;;;25.40;;
579;SDS011;276;48.392;9.950;2022-12-20T10:30:48;31.03;;;25.90;;
579;SDS011;276;48.392;9.950;2022-12-20T10:33:20;29.03;;;24.73;;
579;SDS011;276;48.392;9.950;2022-12-20T10:35:47;27.93;;;25.03;;
579;SDS011;276;48.392;9.950;2022-12-20T10:38:17;26.77;;;23.97;;
579;SDS011;276;48.392;9.950;2022-12-20T10:43:21;25.60;;;22.90;;
579;SDS011;276;48.392;9.950;2022-12-20T10:46:01;36.00;;;27.43;;
579;SDS011;276;48.392;9.950;2022-12-20T10:48:39;48.57;;;37.27;;
579;SDS011;276;48.392;9.950;2022-12-20T10:56:31;29.77;;;26.37;;
579;SDS011;276;48.392;9.950;2022-12-20T11:01:28;26.20;;;22.83;;
579;SDS011;276;48.392;9.950;2022-12-20T11:04:01;24.90;;;21.40;;
579;SDS011;276;48.392;9.950;2022-12-20T11:12:31;22.57;;;20.30;;
579;SDS011;276;48.392;9.950;2022-12-20T11:14:42;25.53;;;22.20;;
579;SDS011;276;48.392;9.950;2022-12-20T11:19:57;29.37;;;25.87;;
579;SDS011;276;48.392;9.950;2022-12-20T11:33:36;23.20;;;20.33;;
579;SDS011;276;48.392;9.950;2022-12-20T11:36:10;24.23;;;21.53;;
579;SDS011;276;48.392;9.950;2022-12-20T11:41:29;27.20;;;23.47;;
579;SDS011;276;48.392;9.950;2022-12-20T11:46:39;23.33;;;20.90;;
579;SDS011;276;48.392;9.950;2022-12-20T11:54:50;21.90;;;19.80;;
579;SDS011;276;48.392;9.950;2022-12-20T11:58:01;25.23;;;21.20;;
579;SDS011;276;48.392;9.950;2022-12-20T12:00:46;21.30;;;19.10;;
579;SDS011;276;48.392;9.950;2022-12-20T12:05:58;27.60;;;23.60;;
579;SDS011;276;48.392;9.950;2022-12-20T12:11:11;25.50;;;23.00;;
579;SDS011;276;48.392;9.950;2022-12-20T12:13:45;25.43;;;22.67;;
579;SDS011;276;48.392;9.950;2022-12-20T12:18:46;23.53;;;21.43;;
579;SDS011;276;48.392;9.950;2022-12-20T12:21:15;26.00;;;21.40;;
579;SDS011;276;48.392;9.950;2022-12-20T12:26:44;21.97;;;19.87;;
579;SDS011;276;48.392;9.950;2022-12-20T12:44:56;28.37;;;25.40;;
579;SDS011;276;48.392;9.950;2022-12-20T12:47:36;31.97;;;28.50;;
579;SDS011;276;48.392;9.950;2022-12-20T12:50:07;29.63;;;26.47;;
579;SDS011;276;48.392;9.950;2022-12-20T12:52:54;31.80;;;26.33;;
579;SDS011;276;48.392;9.950;2022-12-20T13:08:48;28.90;;;25.43;;
579;SDS011;276;48.392;9.950;2022-12-20T13:16:49;23.20;;;20.83;;
579;SDS011;276;48.392;9.950;2022-12-20T13:22:35;24.43;;;21.90;;
579;SDS011;276;48.392;9.950;2022-12-20T13:45:53;23.93;;;21.63;;
579;SDS011;276;48.392;9.950;2022-12-20T13:51:21;25.27;;;22.50;;
579;SDS011;276;48.392;9.950;2022-12-20T13:54:34;24.60;;;22.07;;
579;SDS011;276;48.392;9.950;2022-12-20T13:56:48;36.23;;;24.97;;
579;SDS011;276;48.392;9.950;2022-12-20T13:59:19;255.70;;;58.27;;
579;SDS011;276;48.392;9.950;2022-12-20T14:01:54;275.73;;;72.07;;
579;SDS011;276;48.392;9.950;2022-12-20T14:04:21;432.37;;;96.53;;
579;SDS011;276;48.392;9.950;2022-12-20T14:07:01;430.80;;;91.67;;
579;SDS011;276;48.392;9.950;2022-12-20T14:09:29;285.23;;;69.63;;
579;SDS011;276;48.392;9.950;2022-12-20T14:12:15;141.30;;;45.00;;
579;SDS011;276;48.392;9.950;2022-12-20T14:14:45;83.87;;;32.07;;
579;SDS011;276;48.392;9.950;2022-12-20T14:20:05;33.40;;;22.40;;
579;SDS011;276;48.392;9.950;2022-12-20T14:22:31;28.60;;;19.17;;
579;SDS011;276;48.392;9.950;2022-12-20T14:24:59;22.37;;;17.93;;
579;SDS011;276;48.392;9.950;2022-12-20T14:27:26;22.30;;;16.27;;
579;SDS011;276;48.392;9.950;2022-12-20T14:29:57;20.50;;;16.43;;
579;SDS011;276;48.392;9.950;2022-12-20T14:32:27;20.87;;;15.73;;
579;SDS011;276;48.392;9.950;2022-12-20T14:34:53;22.53;;;15.83;;
579;SDS011;276;48.392;9.950;2022-12-20T14:40:00;20.67;;;18.30;;
579;SDS011;276;48.392;9.950;2022-12-20T14:42:28;27.37;;;17.73;;
579;SDS011;276;48.392;9.950;2022-12-20T14:50:19;19.47;;;17.47;;
579;SDS011;276;48.392;9.950;2022-12-20T14:53:22;43.23;;;23.07;;
579;SDS011;276;48.392;9.950;2022-12-20T14:55:51;26.47;;;17.53;;
579;SDS011;276;48.392;9.950;2022-12-20T14:58:30;18.27;;;16.47;;
579;SDS011;276;48.392;9.950;2022-12-20T15:01:01;16.73;;;14.97;;
579;SDS011;276;48.392;9.950;2022-12-20T15:03:51;20.97;;;17.63;;
579;SDS011;276;48.392;9.950;2022-12-20T15:06:38;16.97;;;15.23;;
579;SDS011;276;48.392;9.950;2022-12-20T15:09:07;23.37;;;19.23;;
579;SDS011;276;48.392;9.950;2022-12-20T15:11:34;21.00;;;19.03;;
579;SDS011;276;48.392;9.950;2022-12-20T15:14:04;23.90;;;21.50;;
579;SDS011;276;48.392;9.950;2022-12-20T15:16:47;20.83;;;18.63;;
579;SDS011;276;48.392;9.950;2022-12-20T15:19:13;22.03;;;19.97;;
579;SDS011;276;48.392;9.950;2022-12-20T15:21:40;23.53;;;19.47;;
579;SDS011;276;48.392;9.950;2022-12-20T15:24:16;24.00;;;21.50;;
579;SDS011;276;48.392;9.950;2022-12-20T15:26:46;24.80;;;22.07;;
579;SDS011;276;48.392;9.950;2022-12-20T15:29:14;24.30;;;21.80;;
579;SDS011;276;48.392;9.950;2022-12-20T15:31:43;20.53;;;18.47;;
579;SDS011;276;48.392;9.950;2022-12-20T15:34:14;22.80;;;18.80;;
579;SDS011;276;48.392;9.950;2022-12-20T15:36:52;23.80;;;21.23;;
579;SDS011;276;48.392;9.950;2022-12-20T15:39:20;23.77;;;21.53;;
579;SDS011;276;48.392;9.950;2022-12-20T15:41:48;22.23;;;20.00;;
579;SDS011;276;48.392;9.950;2022-12-20T15:44:21;23.47;;;21.03;;
579;SDS011;276;48.392;9.950;2022-12-20T15:46:49;22.43;;;20.10;;
579;SDS011;276;48.392;9.950;2022-12-20T15:49:26;20.30;;;18.20;;
579;SDS011;276;48.392;9.950;2022-12-20T15:51:54;19.40;;;17.50;;
579;SDS011;276;48.392;9.950;2022-12-20T15:56:57;21.93;;;19.83;;
579;SDS011;276;48.392;9.950;2022-12-20T15:59:26;22.27;;;20.17;;
579;SDS011;276;48.392;9.950;2022-12-20T16:01:52;23.13;;;20.70;;
579;SDS011;276;48.392;9.950;2022-12-20T16:04:18;22.40;;;20.30;;
579;SDS011;276;48.392;9.950;2022-12-20T16:06:46;28.37;;;23.53;;
579;SDS011;276;48.392;9.950;2022-12-20T16:09:15;26.30;;;23.50;;
579;SDS011;276;48.392;9.950;2022-12-20T16:11:42;26.50;;;23.73;;
579;SDS011;276;48.392;9.950;2022-12-20T16:14:09;27.57;;;24.80;;
579;SDS011;276;48.392;9.950;2022-12-20T16:16:40;25.13;;;22.73;;
579;SDS011;276;48.392;9.950;2022-12-20T16:19:06;30.13;;;24.87;;
579;SDS011;276;48.392;9.950;2022-12-20T16:21:33;25.17;;;22.53;;
579;SDS011;276;48.392;9.950;2022-12-20T16:24:00;26.67;;;23.97;;
579;SDS011;276;48.392;9.950;2022-12-20T16:26:27;26.87;;;24.07;;
579;SDS011;276;48.392;9.950;2022-12-20T16:28:55;25.47;;;22.90;;
579;SDS011;276;48.392;9.950;2022-12-20T16:33:55;26.27;;;23.80;;
579;SDS011;276;48.392;9.950;2022-12-20T16:36:24;24.13;;;21.73;;
579;SDS011;276;48.392;9.950;2022-12-20T16:38:52;25.40;;;22.70;;
579;SDS011;276;48.392;9.950;2022-12-20T16:41:19;24.77;;;22.40;;
579;SDS011;276;48.392;9.950;2022-12-20T16:43:48;27.97;;;25.20;;
579;SDS011;276;48.392;9.950;2022-12-20T16:46:16;24.23;;;21.13;;
579;SDS011;276;48.392;9.950;2022-12-20T16:48:46;26.30;;;23.60;;
579;SDS011;276;48.392;9.950;2022-12-20T16:53:52;30.00;;;23.60;;
579;SDS011;276;48.392;9.950;2022-12-20T16:56:20;26.70;;;22.87;;
579;SDS011;276;48.392;9.950;2022-12-20T16:58:45;26.33;;;23.60;;
579;SDS011;276;48.392;9.950;2022-12-20T17:01:18;24.50;;;22.00;;
579;SDS011;276;48.392;9.950;2022-12-20T17:03:48;25.53;;;22.83;;
579;SDS011;276;48.392;9.950;2022-12-20T17:06:15;25.47;;;23.20;;
579;SDS011;276;48.392;9.950;2022-12-20T17:08:41;26.00;;;23.40;;
579;SDS011;276;48.392;9.950;2022-12-20T17:11:18;27.00;;;24.30;;
579;SDS011;276;48.392;9.950;2022-12-20T17:13:45;24.27;;;21.93;;
579;SDS011;276;48.392;9.950;2022-12-20T17:16:17;24.87;;;22.47;;
579;SDS011;276;48.392;9.950;2022-12-20T17:18:45;27.00;;;24.17;;
579;SDS011;276;48.392;9.950;2022-12-20T17:24:00;33.17;;;27.50;;
579;SDS011;276;48.392;9.950;2022-12-20T17:26:33;30.17;;;27.07;;
579;SDS011;276;48.392;9.950;2022-12-20T17:29:01;29.50;;;26.50;;
579;SDS011;276;48.392;9.950;2022-12-20T17:31:32;28.40;;;25.40;;
579;SDS011;276;48.392;9.950;2022-12-20T17:36:44;29.93;;;26.87;;
579;SDS011;276;48.392;9.950;2022-12-20T17:39:13;31.13;;;27.87;;
579;SDS011;276;48.392;9.950;2022-12-20T17:41:42;29.63;;;26.60;;
579;SDS011;276;48.392;9.950;2022-12-20T17:44:21;27.53;;;24.73;;
579;SDS011;276;48.392;9.950;2022-12-20T17:46:51;26.13;;;23.53;;
579;SDS011;276;48.392;9.950;2022-12-20T17:49:18;21.87;;;19.87;;
579;SDS011;276;48.392;9.950;2022-12-20T17:51:47;23.17;;;20.70;;
579;SDS011;276;48.392;9.950;2022-12-20T17:54:16;24.73;;;22.50;;
579;SDS011;276;48.392;9.950;2022-12-20T17:56:43;26.53;;;24.03;;
579;SDS011;276;48.392;9.950;2022-12-20T17:59:09;27.23;;;24.60;;
579;SDS011;276;48.392;9.950;2022-12-20T18:01:35;27.30;;;24.80;;
579;SDS011;276;48.392;9.950;2022-12-20T18:04:03;28.90;;;25.77;;
579;SDS011;276;48.392;9.950;2022-12-20T18:06:33;35.20;;;30.87;;
579;SDS011;276;48.392;9.950;2022-12-20T18:09:03;34.73;;;31.10;;
579;SDS011;276;48.392;9.950;2022-12-20T18:11:31;32.87;;;29.30;;
579;SDS011;276;48.392;9.950;2022-12-20T18:14:00;35.53;;;30.10;;
579;SDS011;276;48.392;9.950;2022-12-20T18:16:31;36.80;;;31.50;;
579;SDS011;276;48.392;9.950;2022-12-20T18:18:59;36.47;;;32.60;;
579;SDS011;276;48.392;9.950;2022-12-20T18:21:26;38.60;;;33.93;;
579;SDS011;276;48.392;9.950;2022-12-20T18:23:52;36.27;;;32.27;;
579;SDS011;276;48.392;9.950;2022-12-20T18:28:51;38.13;;;33.93;;
579;SDS011;276;48.392;9.950;2022-12-20T18:31:25;39.27;;;34.83;;
579;SDS011;276;48.392;9.950;2022-12-20T18:33:53;37.87;;;33.30;;
579;SDS011;276;48.392;9.950;2022-12-20T18:36:20;38.40;;;34.30;;